sensor_id;sensor_type;location;lat;lon;timestamp;temperature;humidity
12682;DHT22;6405;59.208;18.216;2023-12-20T00:00:38;-0.60;99.90
12682;DHT22;6405;59.208;18.216;2023-12-20T00:03:04;-0.60;99.90
12682;DHT22;6405;59.208;18.216;2023-12-20T00:05:30;-0.70;99.90
12682;DHT22;6405;59.208;18.216;2023-12-20T00:07:59;-0.70;99.90
12682;DHT22;6405;59.208;18.216;2023-12-20T00:10:25;-0.70;99.90
12682;DHT22;6405;59.208;18.216;2023-12-20T00:12:51;-0.70;99.90
12682;DHT22;6405;59.208;18.216;2023-12-20T00:15:17;-0.70;99.90
12682;DHT22;6405;59.208;18.216;2023-12-20T00:17:43;-0.70;99.90
12682;DHT22;6405;59.208;18.216;2023-12-20T00:20:09;-0.80;99.90
12682;DHT22;6405;59.208;18.216;2023-12-20T00:22:34;-0.80;99.90
12682;DHT22;6405;59.208;18.216;2023-12-20T00:25:00;-0.90;99.90
12682;DHT22;6405;59.208;18.216;2023-12-20T00:27:26;-0.90;99.90
12682;DHT22;6405;59.208;18.216;2023-12-20T00:29:51;-1.00;99.90
12682;DHT22;6405;59.208;18.216;2023-12-20T00:32:17;-1.00;99.90
12682;DHT22;6405;59.208;18.216;2023-12-20T00:34:43;-1.10;99.90
12682;DHT22;6405;59.208;18.216;2023-12-20T00:37:09;-0.90;99.90
12682;DHT22;6405;59.208;18.216;2023-12-20T00:39:35;-1.10;99.90
12682;DHT22;6405;59.208;18.216;2023-12-20T00:42:00;-1.20;99.90
12682;DHT22;6405;59.208;18.216;2023-12-20T00:44:26;-1.10;99.90
12682;DHT22;6405;59.208;18.216;2023-12-20T00:46:52;-1.20;99.90
12682;DHT22;6405;59.208;18.216;2023-12-20T00:49:17;-1.30;99.90
12682;DHT22;6405;59.208;18.216;2023-12-20T00:51:43;-1.40;99.90
12682;DHT22;6405;59.208;18.216;2023-12-20T00:54:09;-1.40;99.90
12682;DHT22;6405;59.208;18.216;2023-12-20T00:56:35;-1.50;99.90
12682;DHT22;6405;59.208;18.216;2023-12-20T00:59:00;-1.50;99.90
12682;DHT22;6405;59.208;18.216;2023-12-20T01:01:26;-1.60;99.90
12682;DHT22;6405;59.208;18.216;2023-12-20T01:03:52;-1.70;99.90
12682;DHT22;6405;59.208;18.216;2023-12-20T01:06:18;-1.70;99.90
12682;DHT22;6405;59.208;18.216;2023-12-20T01:08:44;-1.80;99.90
12682;DHT22;6405;59.208;18.216;2023-12-20T01:11:10;-1.80;99.90
12682;DHT22;6405;59.208;18.216;2023-12-20T01:13:36;-1.70;99.90
12682;DHT22;6405;59.208;18.216;2023-12-20T01:16:01;-1.70;99.90
12682;DHT22;6405;59.208;18.216;2023-12-20T01:18:28;-1.70;99.90
12682;DHT22;6405;59.208;18.216;2023-12-20T01:20:54;-1.60;99.90
12682;DHT22;6405;59.208;18.216;2023-12-20T01:23:19;-1.70;99.90
12682;DHT22;6405;59.208;18.216;2023-12-20T01:25:45;-1.70;99.90
12682;DHT22;6405;59.208;18.216;2023-12-20T01:28:11;-1.60;99.90
12682;DHT22;6405;59.208;18.216;2023-12-20T01:30:38;-1.70;99.90
12682;DHT22;6405;59.208;18.216;2023-12-20T01:33:03;-1.70;99.90
12682;DHT22;6405;59.208;18.216;2023-12-20T01:35:29;-1.70;99.90
12682;DHT22;6405;59.208;18.216;2023-12-20T01:37:55;-1.60;99.90
12682;DHT22;6405;59.208;18.216;2023-12-20T01:40:22;-1.70;99.90
12682;DHT22;6405;59.208;18.216;2023-12-20T01:43:07;-1.60;99.90
12682;DHT22;6405;59.208;18.216;2023-12-20T01:45:34;-1.60;99.90
12682;DHT22;6405;59.208;18.216;2023-12-20T01:48:00;-1.30;99.90
12682;DHT22;6405;59.208;18.216;2023-12-20T01:50:28;-1.50;99.90
12682;DHT22;6405;59.208;18.216;2023-12-20T01:52:55;-1.30;99.90
12682;DHT22;6405;59.208;18.216;2023-12-20T01:55:23;-1.20;99.90
12682;DHT22;6405;59.208;18.216;2023-12-20T01:57:50;-1.10;99.90
12682;DHT22;6405;59.208;18.216;2023-12-20T02:00:17;-1.00;99.90
12682;DHT22;6405;59.208;18.216;2023-12-20T02:02:45;-0.90;99.90
12682;DHT22;6405;59.208;18.216;2023-12-20T02:05:11;-0.80;99.90
12682;DHT22;6405;59.208;18.216;2023-12-20T02:07:37;-0.80;99.90
12682;DHT22;6405;59.208;18.216;2023-12-20T02:10:03;-0.70;99.90
12682;DHT22;6405;59.208;18.216;2023-12-20T02:12:32;-0.70;99.90
12682;DHT22;6405;59.208;18.216;2023-12-20T02:14:58;-0.70;99.90
12682;DHT22;6405;59.208;18.216;2023-12-20T02:17:24;-0.60;99.90
12682;DHT22;6405;59.208;18.216;2023-12-20T02:19:49;-0.50;99.90
12682;DHT22;6405;59.208;18.216;2023-12-20T02:22:15;-0.50;99.90
12682;DHT22;6405;59.208;18.216;2023-12-20T02:24:41;-0.50;99.90
12682;DHT22;6405;59.208;18.216;2023-12-20T02:27:07;-0.60;99.90
12682;DHT22;6405;59.208;18.216;2023-12-20T02:29:34;-0.50;99.90
12682;DHT22;6405;59.208;18.216;2023-12-20T02:32:00;-0.70;99.90
12682;DHT22;6405;59.208;18.216;2023-12-20T02:34:25;-0.70;99.90
12682;DHT22;6405;59.208;18.216;2023-12-20T02:36:51;-0.80;99.90
12682;DHT22;6405;59.208;18.216;2023-12-20T02:39:18;-0.80;99.90
12682;DHT22;6405;59.208;18.216;2023-12-20T02:41:44;-0.90;99.90
12682;DHT22;6405;59.208;18.216;2023-12-20T02:44:10;-0.90;99.90
12682;DHT22;6405;59.208;18.216;2023-12-20T02:46:36;-0.90;99.90
12682;DHT22;6405;59.208;18.216;2023-12-20T02:49:01;-0.80;99.90
12682;DHT22;6405;59.208;18.216;2023-12-20T02:51:27;-0.80;99.90
12682;DHT22;6405;59.208;18.216;2023-12-20T02:53:53;-0.80;99.90
12682;DHT22;6405;59.208;18.216;2023-12-20T02:56:19;-0.80;99.90
12682;DHT22;6405;59.208;18.216;2023-12-20T02:58:44;-0.70;99.90
12682;DHT22;6405;59.208;18.216;2023-12-20T03:01:10;-0.70;99.90
12682;DHT22;6405;59.208;18.216;2023-12-20T03:03:36;-0.70;99.90
12682;DHT22;6405;59.208;18.216;2023-12-20T03:06:01;-0.60;99.90
12682;DHT22;6405;59.208;18.216;2023-12-20T03:08:27;-0.70;99.90
12682;DHT22;6405;59.208;18.216;2023-12-20T03:10:53;-0.70;99.90
12682;DHT22;6405;59.208;18.216;2023-12-20T03:13:19;-0.80;99.90
12682;DHT22;6405;59.208;18.216;2023-12-20T03:15:45;-0.80;99.90
12682;DHT22;6405;59.208;18.216;2023-12-20T03:18:11;-0.80;99.90
12682;DHT22;6405;59.208;18.216;2023-12-20T03:20:37;-0.70;99.90
12682;DHT22;6405;59.208;18.216;2023-12-20T03:23:03;-0.80;99.90
12682;DHT22;6405;59.208;18.216;2023-12-20T03:25:29;-0.80;99.90
12682;DHT22;6405;59.208;18.216;2023-12-20T03:27:55;-0.80;99.90
12682;DHT22;6405;59.208;18.216;2023-12-20T03:30:21;-0.80;99.90
12682;DHT22;6405;59.208;18.216;2023-12-20T03:32:47;-0.80;99.90
12682;DHT22;6405;59.208;18.216;2023-12-20T03:35:13;-0.80;99.90
12682;DHT22;6405;59.208;18.216;2023-12-20T03:37:38;-0.80;99.90
12682;DHT22;6405;59.208;18.216;2023-12-20T03:40:04;-0.80;99.90
12682;DHT22;6405;59.208;18.216;2023-12-20T03:42:30;-0.80;99.90
12682;DHT22;6405;59.208;18.216;2023-12-20T03:44:56;-0.80;99.90
12682;DHT22;6405;59.208;18.216;2023-12-20T03:47:22;-0.80;99.90
12682;DHT22;6405;59.208;18.216;2023-12-20T03:49:47;-0.70;99.90
12682;DHT22;6405;59.208;18.216;2023-12-20T03:52:13;-0.70;99.90
12682;DHT22;6405;59.208;18.216;2023-12-20T03:54:39;-0.70;99.90
12682;DHT22;6405;59.208;18.216;2023-12-20T03:57:07;-0.70;99.90
12682;DHT22;6405;59.208;18.216;2023-12-20T03:59:36;-0.80;99.90
12682;DHT22;6405;59.208;18.216;2023-12-20T04:02:02;-0.70;99.90
12682;DHT22;6405;59.208;18.216;2023-12-20T04:04:28;-0.70;99.90
12682;DHT22;6405;59.208;18.216;2023-12-20T04:06:54;-0.70;99.90
12682;DHT22;6405;59.208;18.216;2023-12-20T04:09:20;-0.70;99.90
12682;DHT22;6405;59.208;18.216;2023-12-20T04:11:45;-0.80;99.90
12682;DHT22;6405;59.208;18.216;2023-12-20T04:14:11;-0.50;99.90
12682;DHT22;6405;59.208;18.216;2023-12-20T04:16:37;-0.80;99.90
12682;DHT22;6405;59.208;18.216;2023-12-20T04:19:02;-0.70;99.90
12682;DHT22;6405;59.208;18.216;2023-12-20T04:21:28;-0.80;99.90
12682;DHT22;6405;59.208;18.216;2023-12-20T04:23:54;-0.70;99.90
12682;DHT22;6405;59.208;18.216;2023-12-20T04:26:19;-0.70;99.90
12682;DHT22;6405;59.208;18.216;2023-12-20T04:28:45;-0.70;99.90
12682;DHT22;6405;59.208;18.216;2023-12-20T04:31:11;-0.70;99.90
12682;DHT22;6405;59.208;18.216;2023-12-20T04:33:36;-0.60;99.90
12682;DHT22;6405;59.208;18.216;2023-12-20T04:36:02;-0.60;99.90
12682;DHT22;6405;59.208;18.216;2023-12-20T04:38:28;-0.60;99.90
12682;DHT22;6405;59.208;18.216;2023-12-20T04:40:54;-0.60;99.90
12682;DHT22;6405;59.208;18.216;2023-12-20T04:43:20;-0.60;99.90
12682;DHT22;6405;59.208;18.216;2023-12-20T04:45:45;-0.60;99.90
12682;DHT22;6405;59.208;18.216;2023-12-20T04:48:11;-0.60;99.90
12682;DHT22;6405;59.208;18.216;2023-12-20T04:50:37;-0.50;99.90
12682;DHT22;6405;59.208;18.216;2023-12-20T04:53:03;-0.60;99.90
12682;DHT22;6405;59.208;18.216;2023-12-20T04:55:29;-0.60;99.90
12682;DHT22;6405;59.208;18.216;2023-12-20T04:57:54;-0.60;99.90
12682;DHT22;6405;59.208;18.216;2023-12-20T05:00:20;-0.60;99.90
12682;DHT22;6405;59.208;18.216;2023-12-20T05:02:46;-0.60;99.90
12682;DHT22;6405;59.208;18.216;2023-12-20T05:05:11;-0.60;99.90
12682;DHT22;6405;59.208;18.216;2023-12-20T05:07:37;-0.60;99.90
12682;DHT22;6405;59.208;18.216;2023-12-20T05:10:03;-0.60;99.90
12682;DHT22;6405;59.208;18.216;2023-12-20T05:12:34;-0.60;99.90
12682;DHT22;6405;59.208;18.216;2023-12-20T05:15:00;-0.60;99.90
12682;DHT22;6405;59.208;18.216;2023-12-20T05:17:26;-0.60;99.90
12682;DHT22;6405;59.208;18.216;2023-12-20T05:19:52;-0.60;99.90
12682;DHT22;6405;59.208;18.216;2023-12-20T05:22:19;-0.60;99.90
12682;DHT22;6405;59.208;18.216;2023-12-20T05:24:45;-0.60;99.90
12682;DHT22;6405;59.208;18.216;2023-12-20T05:27:11;-0.60;99.90
12682;DHT22;6405;59.208;18.216;2023-12-20T05:29:37;-0.60;99.90
12682;DHT22;6405;59.208;18.216;2023-12-20T05:32:03;-0.70;99.90
12682;DHT22;6405;59.208;18.216;2023-12-20T05:34:30;-0.70;99.90
12682;DHT22;6405;59.208;18.216;2023-12-20T05:36:58;-0.70;99.90
12682;DHT22;6405;59.208;18.216;2023-12-20T05:39:23;-0.70;99.90
12682;DHT22;6405;59.208;18.216;2023-12-20T05:41:49;-0.70;99.90
12682;DHT22;6405;59.208;18.216;2023-12-20T05:44:15;-0.70;99.90
12682;DHT22;6405;59.208;18.216;2023-12-20T05:46:40;-0.70;99.90
12682;DHT22;6405;59.208;18.216;2023-12-20T05:49:07;-0.80;99.90
12682;DHT22;6405;59.208;18.216;2023-12-20T05:51:32;-0.70;99.90
12682;DHT22;6405;59.208;18.216;2023-12-20T05:53:58;-0.70;99.90
12682;DHT22;6405;59.208;18.216;2023-12-20T05:56:24;-0.80;99.90
12682;DHT22;6405;59.208;18.216;2023-12-20T05:58:50;-0.80;99.90
12682;DHT22;6405;59.208;18.216;2023-12-20T06:01:16;-0.80;99.90
12682;DHT22;6405;59.208;18.216;2023-12-20T06:03:44;-0.80;99.90
12682;DHT22;6405;59.208;18.216;2023-12-20T06:06:11;-0.80;99.90
12682;DHT22;6405;59.208;18.216;2023-12-20T06:08:38;-0.80;99.90
12682;DHT22;6405;59.208;18.216;2023-12-20T06:11:04;-0.80;99.90
12682;DHT22;6405;59.208;18.216;2023-12-20T06:13:31;-0.90;99.90
12682;DHT22;6405;59.208;18.216;2023-12-20T06:15:57;-0.80;99.90
12682;DHT22;6405;59.208;18.216;2023-12-20T06:18:23;-0.90;99.90
12682;DHT22;6405;59.208;18.216;2023-12-20T06:20:49;-0.80;99.90
12682;DHT22;6405;59.208;18.216;2023-12-20T06:23:15;-0.80;99.90
12682;DHT22;6405;59.208;18.216;2023-12-20T06:25:41;-0.80;99.90
12682;DHT22;6405;59.208;18.216;2023-12-20T06:28:07;-0.80;99.90
12682;DHT22;6405;59.208;18.216;2023-12-20T06:30:33;-0.80;99.90
12682;DHT22;6405;59.208;18.216;2023-12-20T06:32:59;-0.80;99.90
12682;DHT22;6405;59.208;18.216;2023-12-20T06:35:25;-0.80;99.90
12682;DHT22;6405;59.208;18.216;2023-12-20T06:37:51;-0.70;99.90
12682;DHT22;6405;59.208;18.216;2023-12-20T06:40:17;-0.60;99.90
12682;DHT22;6405;59.208;18.216;2023-12-20T06:42:44;-0.70;99.90
12682;DHT22;6405;59.208;18.216;2023-12-20T06:45:10;-0.70;99.90
12682;DHT22;6405;59.208;18.216;2023-12-20T06:47:35;-0.70;99.90
12682;DHT22;6405;59.208;18.216;2023-12-20T06:50:01;-0.70;99.90
12682;DHT22;6405;59.208;18.216;2023-12-20T06:52:27;-0.70;99.90
12682;DHT22;6405;59.208;18.216;2023-12-20T06:54:53;-0.70;99.90
12682;DHT22;6405;59.208;18.216;2023-12-20T06:57:18;-0.60;99.90
12682;DHT22;6405;59.208;18.216;2023-12-20T06:59:45;-0.60;99.90
12682;DHT22;6405;59.208;18.216;2023-12-20T07:02:11;-0.60;99.90
12682;DHT22;6405;59.208;18.216;2023-12-20T07:04:41;-0.60;99.90
12682;DHT22;6405;59.208;18.216;2023-12-20T07:07:06;-0.60;99.90
12682;DHT22;6405;59.208;18.216;2023-12-20T07:09:33;-0.60;99.90
12682;DHT22;6405;59.208;18.216;2023-12-20T07:11:59;-0.60;99.90
12682;DHT22;6405;59.208;18.216;2023-12-20T07:14:25;-0.60;99.90
12682;DHT22;6405;59.208;18.216;2023-12-20T07:16:50;-0.60;99.90
12682;DHT22;6405;59.208;18.216;2023-12-20T07:19:16;-0.60;99.90
12682;DHT22;6405;59.208;18.216;2023-12-20T07:21:42;-0.60;99.90
12682;DHT22;6405;59.208;18.216;2023-12-20T07:24:09;-0.50;99.90
12682;DHT22;6405;59.208;18.216;2023-12-20T07:26:35;-0.50;99.90
12682;DHT22;6405;59.208;18.216;2023-12-20T07:29:01;-0.50;99.90
12682;DHT22;6405;59.208;18.216;2023-12-20T07:31:26;-0.50;99.90
12682;DHT22;6405;59.208;18.216;2023-12-20T07:33:52;-0.50;99.90
12682;DHT22;6405;59.208;18.216;2023-12-20T07:36:19;-0.40;99.90
12682;DHT22;6405;59.208;18.216;2023-12-20T07:38:45;-0.40;99.90
12682;DHT22;6405;59.208;18.216;2023-12-20T07:41:11;-0.40;99.90
12682;DHT22;6405;59.208;18.216;2023-12-20T07:43:36;-0.40;99.90
12682;DHT22;6405;59.208;18.216;2023-12-20T07:46:09;-0.30;99.90
12682;DHT22;6405;59.208;18.216;2023-12-20T07:48:35;-0.30;99.90
12682;DHT22;6405;59.208;18.216;2023-12-20T07:51:01;-0.30;99.90
12682;DHT22;6405;59.208;18.216;2023-12-20T07:53:27;-0.30;99.90
12682;DHT22;6405;59.208;18.216;2023-12-20T07:55:53;-0.30;99.90
12682;DHT22;6405;59.208;18.216;2023-12-20T07:58:20;-0.20;99.90
12682;DHT22;6405;59.208;18.216;2023-12-20T08:00:45;-0.30;99.90
12682;DHT22;6405;59.208;18.216;2023-12-20T08:03:11;-0.30;99.90
12682;DHT22;6405;59.208;18.216;2023-12-20T08:05:37;-0.10;99.90
12682;DHT22;6405;59.208;18.216;2023-12-20T08:08:06;-0.40;99.90
12682;DHT22;6405;59.208;18.216;2023-12-20T08:10:31;-0.40;99.90
12682;DHT22;6405;59.208;18.216;2023-12-20T08:12:57;-0.40;99.90
12682;DHT22;6405;59.208;18.216;2023-12-20T08:15:23;-0.50;99.90
12682;DHT22;6405;59.208;18.216;2023-12-20T08:17:49;-0.60;99.90
12682;DHT22;6405;59.208;18.216;2023-12-20T08:20:16;-0.60;99.90
12682;DHT22;6405;59.208;18.216;2023-12-20T08:22:42;-0.60;99.90
12682;DHT22;6405;59.208;18.216;2023-12-20T08:25:08;-0.60;99.90
12682;DHT22;6405;59.208;18.216;2023-12-20T08:27:39;-0.60;99.90
12682;DHT22;6405;59.208;18.216;2023-12-20T08:30:05;-0.60;99.90
12682;DHT22;6405;59.208;18.216;2023-12-20T08:32:31;-0.60;99.90
12682;DHT22;6405;59.208;18.216;2023-12-20T08:34:57;-0.50;99.90
12682;DHT22;6405;59.208;18.216;2023-12-20T08:37:23;-0.40;99.90
12682;DHT22;6405;59.208;18.216;2023-12-20T08:39:49;-0.30;99.90
12682;DHT22;6405;59.208;18.216;2023-12-20T08:42:15;-0.30;99.90
12682;DHT22;6405;59.208;18.216;2023-12-20T08:44:40;-0.20;99.90
12682;DHT22;6405;59.208;18.216;2023-12-20T08:47:06;-0.10;99.90
12682;DHT22;6405;59.208;18.216;2023-12-20T08:49:32;-0.10;99.90
12682;DHT22;6405;59.208;18.216;2023-12-20T08:51:58;-0.10;99.90
12682;DHT22;6405;59.208;18.216;2023-12-20T08:54:24;0.00;99.90
12682;DHT22;6405;59.208;18.216;2023-12-20T08:56:50;0.00;99.90
12682;DHT22;6405;59.208;18.216;2023-12-20T08:59:15;0.10;99.90
12682;DHT22;6405;59.208;18.216;2023-12-20T09:01:41;0.10;99.90
12682;DHT22;6405;59.208;18.216;2023-12-20T09:04:07;0.10;99.90
12682;DHT22;6405;59.208;18.216;2023-12-20T09:06:33;0.20;99.90
12682;DHT22;6405;59.208;18.216;2023-12-20T09:08:58;0.20;99.90
12682;DHT22;6405;59.208;18.216;2023-12-20T09:11:24;0.20;99.90
12682;DHT22;6405;59.208;18.216;2023-12-20T09:13:50;0.20;99.90
12682;DHT22;6405;59.208;18.216;2023-12-20T09:16:16;0.30;99.90
12682;DHT22;6405;59.208;18.216;2023-12-20T09:18:42;0.30;99.90
12682;DHT22;6405;59.208;18.216;2023-12-20T09:21:08;0.30;99.90
12682;DHT22;6405;59.208;18.216;2023-12-20T09:23:33;0.40;99.90
12682;DHT22;6405;59.208;18.216;2023-12-20T09:25:59;0.40;99.90
12682;DHT22;6405;59.208;18.216;2023-12-20T09:28:25;0.40;99.90
12682;DHT22;6405;59.208;18.216;2023-12-20T09:30:51;0.40;99.90
12682;DHT22;6405;59.208;18.216;2023-12-20T09:33:16;0.50;99.90
12682;DHT22;6405;59.208;18.216;2023-12-20T09:35:42;0.80;99.90
12682;DHT22;6405;59.208;18.216;2023-12-20T09:38:08;0.70;99.90
12682;DHT22;6405;59.208;18.216;2023-12-20T09:40:34;0.50;99.90
12682;DHT22;6405;59.208;18.216;2023-12-20T09:43:13;0.70;99.90
12682;DHT22;6405;59.208;18.216;2023-12-20T09:45:40;0.50;99.90
12682;DHT22;6405;59.208;18.216;2023-12-20T09:48:07;0.50;99.90
12682;DHT22;6405;59.208;18.216;2023-12-20T09:50:35;0.50;99.90
12682;DHT22;6405;59.208;18.216;2023-12-20T09:53:02;0.50;99.90
12682;DHT22;6405;59.208;18.216;2023-12-20T09:55:30;0.60;99.90
12682;DHT22;6405;59.208;18.216;2023-12-20T09:57:57;0.80;99.90
12682;DHT22;6405;59.208;18.216;2023-12-20T10:00:22;0.60;99.90
12682;DHT22;6405;59.208;18.216;2023-12-20T10:03:06;0.80;99.90
12682;DHT22;6405;59.208;18.216;2023-12-20T10:05:33;0.70;99.90
12682;DHT22;6405;59.208;18.216;2023-12-20T10:08:00;0.60;99.90
12682;DHT22;6405;59.208;18.216;2023-12-20T10:10:27;0.90;99.90
12682;DHT22;6405;59.208;18.216;2023-12-20T10:13:06;0.70;99.90
12682;DHT22;6405;59.208;18.216;2023-12-20T10:15:36;0.70;99.90
12682;DHT22;6405;59.208;18.216;2023-12-20T10:18:02;0.70;99.90
12682;DHT22;6405;59.208;18.216;2023-12-20T10:20:29;0.70;99.90
12682;DHT22;6405;59.208;18.216;2023-12-20T10:22:56;0.70;99.90
12682;DHT22;6405;59.208;18.216;2023-12-20T10:25:22;0.80;99.90
12682;DHT22;6405;59.208;18.216;2023-12-20T10:27:50;0.80;99.90
12682;DHT22;6405;59.208;18.216;2023-12-20T10:30:16;0.70;99.90
12682;DHT22;6405;59.208;18.216;2023-12-20T10:32:42;0.70;99.90
12682;DHT22;6405;59.208;18.216;2023-12-20T10:35:08;0.80;99.90
12682;DHT22;6405;59.208;18.216;2023-12-20T10:37:37;0.80;99.90
12682;DHT22;6405;59.208;18.216;2023-12-20T10:40:04;0.80;99.90
12682;DHT22;6405;59.208;18.216;2023-12-20T10:42:31;0.90;99.90
12682;DHT22;6405;59.208;18.216;2023-12-20T10:44:59;0.90;99.90
12682;DHT22;6405;59.208;18.216;2023-12-20T10:47:25;1.00;99.90
12682;DHT22;6405;59.208;18.216;2023-12-20T10:49:55;1.00;99.90
12682;DHT22;6405;59.208;18.216;2023-12-20T10:52:23;1.10;99.90
12682;DHT22;6405;59.208;18.216;2023-12-20T10:54:49;1.00;99.90
12682;DHT22;6405;59.208;18.216;2023-12-20T10:57:17;1.00;99.90
12682;DHT22;6405;59.208;18.216;2023-12-20T10:59:45;1.00;99.90
12682;DHT22;6405;59.208;18.216;2023-12-20T11:02:14;1.10;99.90
12682;DHT22;6405;59.208;18.216;2023-12-20T11:05:02;1.10;99.90
12682;DHT22;6405;59.208;18.216;2023-12-20T11:07:46;1.20;99.90
12682;DHT22;6405;59.208;18.216;2023-12-20T11:10:15;1.20;99.90
12682;DHT22;6405;59.208;18.216;2023-12-20T11:12:48;1.20;99.90
12682;DHT22;6405;59.208;18.216;2023-12-20T11:15:15;1.20;99.90
12682;DHT22;6405;59.208;18.216;2023-12-20T11:17:40;1.30;99.90
12682;DHT22;6405;59.208;18.216;2023-12-20T11:20:10;1.40;99.90
12682;DHT22;6405;59.208;18.216;2023-12-20T11:22:37;1.20;99.90
12682;DHT22;6405;59.208;18.216;2023-12-20T11:25:08;1.20;99.90
12682;DHT22;6405;59.208;18.216;2023-12-20T11:27:35;1.20;99.90
12682;DHT22;6405;59.208;18.216;2023-12-20T11:30:03;1.40;99.90
12682;DHT22;6405;59.208;18.216;2023-12-20T11:32:34;1.30;99.90
12682;DHT22;6405;59.208;18.216;2023-12-20T11:37:39;1.30;99.90
12682;DHT22;6405;59.208;18.216;2023-12-20T11:40:12;1.30;99.90
12682;DHT22;6405;59.208;18.216;2023-12-20T11:42:49;1.30;99.90
12682;DHT22;6405;59.208;18.216;2023-12-20T11:45:17;1.40;99.90
12682;DHT22;6405;59.208;18.216;2023-12-20T11:47:47;1.30;99.90
12682;DHT22;6405;59.208;18.216;2023-12-20T11:50:13;1.30;99.90
12682;DHT22;6405;59.208;18.216;2023-12-20T11:52:38;1.30;99.90
12682;DHT22;6405;59.208;18.216;2023-12-20T11:55:04;1.30;99.90
12682;DHT22;6405;59.208;18.216;2023-12-20T11:57:31;1.30;99.90
12682;DHT22;6405;59.208;18.216;2023-12-20T11:59:57;1.40;99.90
12682;DHT22;6405;59.208;18.216;2023-12-20T12:02:22;1.40;99.90
12682;DHT22;6405;59.208;18.216;2023-12-20T12:04:49;1.30;99.90
12682;DHT22;6405;59.208;18.216;2023-12-20T12:07:18;1.40;99.90
12682;DHT22;6405;59.208;18.216;2023-12-20T12:09:44;1.30;99.90
12682;DHT22;6405;59.208;18.216;2023-12-20T12:12:11;1.30;99.90
12682;DHT22;6405;59.208;18.216;2023-12-20T12:14:38;1.50;99.90
12682;DHT22;6405;59.208;18.216;2023-12-20T12:17:04;1.30;99.90
12682;DHT22;6405;59.208;18.216;2023-12-20T12:19:30;1.40;99.90
12682;DHT22;6405;59.208;18.216;2023-12-20T12:22:11;1.30;99.90
12682;DHT22;6405;59.208;18.216;2023-12-20T12:24:44;1.50;99.90
12682;DHT22;6405;59.208;18.216;2023-12-20T12:27:11;1.30;99.90
12682;DHT22;6405;59.208;18.216;2023-12-20T12:29:37;1.30;99.90
12682;DHT22;6405;59.208;18.216;2023-12-20T12:32:07;1.50;99.90
12682;DHT22;6405;59.208;18.216;2023-12-20T12:34:36;1.30;99.90
12682;DHT22;6405;59.208;18.216;2023-12-20T12:37:04;1.30;99.90
12682;DHT22;6405;59.208;18.216;2023-12-20T12:39:30;1.30;99.90
12682;DHT22;6405;59.208;18.216;2023-12-20T12:41:56;1.50;99.90
12682;DHT22;6405;59.208;18.216;2023-12-20T12:44:22;1.30;99.90
12682;DHT22;6405;59.208;18.216;2023-12-20T12:46:51;1.30;99.90
12682;DHT22;6405;59.208;18.216;2023-12-20T12:49:19;1.30;99.90
12682;DHT22;6405;59.208;18.216;2023-12-20T12:51:46;1.30;99.90
12682;DHT22;6405;59.208;18.216;2023-12-20T12:54:12;1.20;99.90
12682;DHT22;6405;59.208;18.216;2023-12-20T12:56:39;1.20;99.90
12682;DHT22;6405;59.208;18.216;2023-12-20T12:59:05;1.40;99.90
12682;DHT22;6405;59.208;18.216;2023-12-20T13:01:31;1.20;99.90
12682;DHT22;6405;59.208;18.216;2023-12-20T13:03:57;1.20;99.90
12682;DHT22;6405;59.208;18.216;2023-12-20T13:06:23;1.20;99.90
12682;DHT22;6405;59.208;18.216;2023-12-20T13:08:49;1.20;99.90
12682;DHT22;6405;59.208;18.216;2023-12-20T13:11:15;1.20;99.90
12682;DHT22;6405;59.208;18.216;2023-12-20T13:13:40;1.20;99.90
12682;DHT22;6405;59.208;18.216;2023-12-20T13:16:07;1.20;99.90
12682;DHT22;6405;59.208;18.216;2023-12-20T13:18:33;1.20;99.90
12682;DHT22;6405;59.208;18.216;2023-12-20T13:20:59;1.20;99.90
12682;DHT22;6405;59.208;18.216;2023-12-20T13:23:24;1.20;99.90
12682;DHT22;6405;59.208;18.216;2023-12-20T13:25:50;1.30;99.90
12682;DHT22;6405;59.208;18.216;2023-12-20T13:28:16;1.30;99.90
12682;DHT22;6405;59.208;18.216;2023-12-20T13:30:42;1.30;99.90
12682;DHT22;6405;59.208;18.216;2023-12-20T13:33:08;1.30;99.90
12682;DHT22;6405;59.208;18.216;2023-12-20T13:35:34;1.30;99.90
12682;DHT22;6405;59.208;18.216;2023-12-20T13:38:00;1.30;99.90
12682;DHT22;6405;59.208;18.216;2023-12-20T13:40:26;1.30;99.90
12682;DHT22;6405;59.208;18.216;2023-12-20T13:42:52;1.30;99.90
12682;DHT22;6405;59.208;18.216;2023-12-20T13:45:18;1.30;99.90
12682;DHT22;6405;59.208;18.216;2023-12-20T13:47:43;1.30;99.90
12682;DHT22;6405;59.208;18.216;2023-12-20T13:50:09;1.30;99.90
12682;DHT22;6405;59.208;18.216;2023-12-20T13:52:35;1.30;99.90
12682;DHT22;6405;59.208;18.216;2023-12-20T13:55:01;1.40;99.90
12682;DHT22;6405;59.208;18.216;2023-12-20T13:57:27;1.30;99.90
12682;DHT22;6405;59.208;18.216;2023-12-20T13:59:55;1.20;99.90
12682;DHT22;6405;59.208;18.216;2023-12-20T14:02:23;1.30;99.90
12682;DHT22;6405;59.208;18.216;2023-12-20T14:04:49;1.40;99.90
12682;DHT22;6405;59.208;18.216;2023-12-20T14:07:14;1.20;99.90
12682;DHT22;6405;59.208;18.216;2023-12-20T14:09:40;1.30;99.90
12682;DHT22;6405;59.208;18.216;2023-12-20T14:12:11;1.30;99.90
12682;DHT22;6405;59.208;18.216;2023-12-20T14:14:37;1.30;99.90
12682;DHT22;6405;59.208;18.216;2023-12-20T14:17:02;1.30;99.90
12682;DHT22;6405;59.208;18.216;2023-12-20T14:19:29;1.30;99.90
12682;DHT22;6405;59.208;18.216;2023-12-20T14:21:55;1.30;99.90
12682;DHT22;6405;59.208;18.216;2023-12-20T14:24:20;1.30;99.90
12682;DHT22;6405;59.208;18.216;2023-12-20T14:26:46;1.30;99.90
12682;DHT22;6405;59.208;18.216;2023-12-20T14:29:12;1.30;99.90
12682;DHT22;6405;59.208;18.216;2023-12-20T14:31:38;1.30;99.90
12682;DHT22;6405;59.208;18.216;2023-12-20T14:34:05;1.30;99.90
12682;DHT22;6405;59.208;18.216;2023-12-20T14:36:32;1.40;99.90
12682;DHT22;6405;59.208;18.216;2023-12-20T14:38:57;1.40;99.90
12682;DHT22;6405;59.208;18.216;2023-12-20T14:41:23;1.40;99.90
12682;DHT22;6405;59.208;18.216;2023-12-20T14:43:50;1.40;99.90
12682;DHT22;6405;59.208;18.216;2023-12-20T14:46:17;1.40;99.90
12682;DHT22;6405;59.208;18.216;2023-12-20T14:48:43;1.40;99.90
12682;DHT22;6405;59.208;18.216;2023-12-20T14:51:09;1.40;99.90
12682;DHT22;6405;59.208;18.216;2023-12-20T14:53:36;1.40;99.90
12682;DHT22;6405;59.208;18.216;2023-12-20T14:56:04;1.60;99.90
12682;DHT22;6405;59.208;18.216;2023-12-20T14:58:29;1.40;99.90
12682;DHT22;6405;59.208;18.216;2023-12-20T15:00:55;1.50;99.90
12682;DHT22;6405;59.208;18.216;2023-12-20T15:03:21;1.50;99.90
12682;DHT22;6405;59.208;18.216;2023-12-20T15:05:47;1.40;99.90
12682;DHT22;6405;59.208;18.216;2023-12-20T15:08:14;1.50;99.90
12682;DHT22;6405;59.208;18.216;2023-12-20T15:10:39;1.50;99.90
12682;DHT22;6405;59.208;18.216;2023-12-20T15:13:06;1.50;99.90
12682;DHT22;6405;59.208;18.216;2023-12-20T15:15:32;1.70;99.90
12682;DHT22;6405;59.208;18.216;2023-12-20T15:17:59;1.70;99.90
12682;DHT22;6405;59.208;18.216;2023-12-20T15:20:25;1.50;99.90
12682;DHT22;6405;59.208;18.216;2023-12-20T15:22:51;1.60;99.90
12682;DHT22;6405;59.208;18.216;2023-12-20T15:25:18;1.50;99.90
12682;DHT22;6405;59.208;18.216;2023-12-20T15:27:48;1.50;99.90
12682;DHT22;6405;59.208;18.216;2023-12-20T15:30:19;1.70;99.90
12682;DHT22;6405;59.208;18.216;2023-12-20T15:32:45;1.50;99.90
12682;DHT22;6405;59.208;18.216;2023-12-20T15:35:11;1.60;99.90